Time,TemperatureF,DewpointF,PressureIn,WindDirection,WindDirectionDegrees,WindSpeedMPH,WindSpeedGustMPH,Humidity,HourlyPrecipIn,Conditions,Clouds,dailyrainin,SoftwareType,DateUTC
2013-10-06 00:24:00,64.0,61.0,30.12,SSE,155,0.0,3.0,90,0.05,,,0.09,,2013-10-06 04:24:00,
2013-10-06 00:44:00,64.0,61.0,30.11,SSE,155,0.0,0.0,90,0.04,,,0.09,,2013-10-06 04:44:00,
2013-10-06 00:54:00,64.0,61.0,30.11,SSW,206,0.0,1.0,90,0.00,,,0.09,,2013-10-06 04:54:00,
2013-10-06 01:23:00,64.0,61.0,30.12,SSW,206,0.0,1.0,90,0.00,,,0.09,,2013-10-06 05:23:00,
2013-10-06 01:52:00,63.0,60.0,30.12,NW,322,0.0,1.0,91,0.01,,,0.10,,2013-10-06 05:52:00,
2013-10-06 02:12:00,63.0,60.0,30.12,ESE,119,0.0,4.0,91,0.02,,,0.11,,2013-10-06 06:12:00,
2013-10-06 02:22:00,63.0,60.0,30.11,South,191,0.0,1.0,91,0.02,,,0.11,,2013-10-06 06:22:00,
2013-10-06 02:42:00,63.0,60.0,30.11,SSW,210,0.0,2.0,91,0.01,,,0.11,,2013-10-06 06:42:00,
2013-10-06 02:52:00,63.0,60.0,30.11,NE,48,0.0,1.0,91,0.01,,,0.11,,2013-10-06 06:52:00,
2013-10-06 03:11:00,63.0,60.0,30.11,WSW,245,0.0,2.0,91,0.00,,,0.11,,2013-10-06 07:11:00,
2013-10-06 03:22:00,63.0,60.0,30.11,WSW,254,0.0,2.0,91,0.01,,,0.12,,2013-10-06 07:22:00,
2013-10-06 03:52:00,63.0,60.0,30.10,South,178,0.0,3.0,91,0.01,,,0.12,,2013-10-06 07:52:00,
2013-10-06 04:11:00,63.0,60.0,30.10,ESE,123,0.0,3.0,91,0.01,,,0.12,,2013-10-06 08:11:00,
2013-10-06 04:22:00,63.0,60.0,30.10,SSW,202,0.0,2.0,91,0.01,,,0.13,,2013-10-06 08:22:00,
2013-10-06 04:53:00,63.0,60.0,30.11,ESE,107,0.0,2.0,91,0.01,,,0.13,,2013-10-06 08:53:00,
2013-10-06 05:22:00,62.0,59.0,30.11,South,180,0.0,3.0,91,0.00,,,0.13,,2013-10-06 09:22:00,
2013-10-06 05:53:00,62.0,60.0,30.11,ESE,121,1.0,4.0,92,0.00,,,0.13,,2013-10-06 09:53:00,
2013-10-06 06:23:00,62.0,60.0,30.11,NE,49,0.0,3.0,92,0.00,,,0.13,,2013-10-06 10:23:00,
2013-10-06 06:53:00,62.0,60.0,30.11,NE,52,0.0,2.0,92,0.00,,,0.13,,2013-10-06 10:53:00,
2013-10-06 07:22:00,62.0,60.0,30.12,SW,233,0.0,2.0,92,0.00,,,0.13,,2013-10-06 11:22:00,
2013-10-06 07:52:00,62.0,60.0,30.12,SE,128,1.0,5.0,92,0.01,,,0.14,,2013-10-06 11:52:00,
2013-10-06 08:12:00,62.0,60.0,30.13,South,173,0.0,4.0,92,0.01,,,0.14,,2013-10-06 12:12:00,
2013-10-06 08:22:00,62.0,60.0,30.13,ENE,76,0.0,5.0,92,0.01,,,0.14,,2013-10-06 12:22:00,
2013-10-06 08:52:00,62.0,60.0,30.14,ESE,104,0.0,10.0,92,0.14,,,0.28,,2013-10-06 12:52:00,
2013-10-06 09:11:00,62.0,60.0,30.15,SE,146,0.0,6.0,92,0.22,,,0.36,,2013-10-06 13:11:00,
2013-10-06 09:21:00,62.0,60.0,30.15,East,98,0.0,5.0,92,0.27,,,0.41,,2013-10-06 13:21:00,
2013-10-06 09:42:00,62.0,60.0,30.15,SE,132,1.0,7.0,92,0.19,,,0.43,,2013-10-06 13:42:00,
2013-10-06 09:52:00,62.0,60.0,30.15,SE,142,0.0,5.0,92,0.15,,,0.43,,2013-10-06 13:52:00,
2013-10-06 10:22:00,61.0,59.0,30.15,SE,137,1.0,5.0,92,0.03,,,0.44,,2013-10-06 14:22:00,
2013-10-06 10:42:00,61.0,59.0,30.16,SSW,200,4.0,14.0,92,0.01,,,0.44,,2013-10-06 14:42:00,
2013-10-06 10:52:00,60.0,58.0,30.16,SE,128,2.0,6.0,92,0.01,,,0.44,,2013-10-06 14:52:00,
2013-10-06 11:11:00,60.0,58.0,30.17,NNW,337,0.0,4.0,92,0.00,,,0.44,,2013-10-06 15:11:00,
2013-10-06 11:22:00,60.0,58.0,30.16,East,98,1.0,11.0,92,0.00,,,0.44,,2013-10-06 15:22:00,
2013-10-06 11:54:00,59.0,57.0,30.17,South,182,2.0,6.0,92,0.01,,,0.45,,2013-10-06 15:54:00,
2013-10-06 12:12:00,59.0,57.0,30.16,East,101,0.0,7.0,92,0.01,,,0.45,,2013-10-06 16:12:00,
2013-10-06 12:23:00,60.0,58.0,30.16,ENE,61,1.0,7.0,92,0.01,,,0.45,,2013-10-06 16:23:00,
2013-10-06 12:42:00,60.0,58.0,30.16,SE,146,1.0,11.0,92,0.01,,,0.46,,2013-10-06 16:42:00,
2013-10-06 12:53:00,60.0,58.0,30.16,NE,53,1.0,4.0,92,0.01,,,0.46,,2013-10-06 16:53:00,
2013-10-06 13:22:00,59.0,57.0,30.15,ESE,123,2.0,9.0,92,0.01,,,0.46,,2013-10-06 17:22:00,
2013-10-06 13:42:00,59.0,57.0,30.15,SE,141,2.0,7.0,92,0.00,,,0.46,,2013-10-06 17:42:00,
2013-10-06 13:52:00,59.0,57.0,30.14,NE,40,0.0,9.0,92,0.00,,,0.46,,2013-10-06 17:52:00,
2013-10-06 14:12:00,59.0,57.0,30.14,NNW,344,1.0,10.0,92,0.00,,,0.46,,2013-10-06 18:12:00,
2013-10-06 14:22:00,59.0,57.0,30.14,WNW,293,0.0,4.0,92,0.00,,,0.46,,2013-10-06 18:22:00,
2013-10-06 14:43:00,59.0,57.0,30.14,East,99,1.0,7.0,92,0.01,,,0.47,,2013-10-06 18:43:00,
2013-10-06 14:52:00,59.0,57.0,30.14,East,94,2.0,6.0,92,0.01,,,0.47,,2013-10-06 18:52:00,
2013-10-06 15:11:00,59.0,57.0,30.14,SE,128,2.0,7.0,92,0.01,,,0.47,,2013-10-06 19:11:00,
2013-10-06 15:22:00,59.0,57.0,30.13,ENE,67,1.0,8.0,92,0.01,,,0.47,,2013-10-06 19:22:00,
2013-10-06 15:42:00,59.0,57.0,30.13,ESE,108,0.0,9.0,92,0.00,,,0.47,,2013-10-06 19:42:00,
2013-10-06 15:53:00,59.0,57.0,30.14,NE,34,2.0,8.0,92,0.00,,,0.47,,2013-10-06 19:53:00,
2013-10-06 16:11:00,59.0,57.0,30.14,NE,56,0.0,7.0,92,0.00,,,0.47,,2013-10-06 20:11:00,
2013-10-06 16:22:00,59.0,57.0,30.13,SSW,192,0.0,8.0,92,0.00,,,0.47,,2013-10-06 20:22:00,
2013-10-06 16:53:00,59.0,57.0,30.13,ENE,78,1.0,6.0,92,0.01,,,0.48,,2013-10-06 20:53:00,
2013-10-06 17:22:00,59.0,57.0,30.13,NNE,26,1.0,9.0,92,0.01,,,0.48,,2013-10-06 21:22:00,
2013-10-06 17:44:00,59.0,57.0,30.13,NNE,32,1.0,5.0,92,0.01,,,0.48,,2013-10-06 21:44:00,
2013-10-06 17:55:00,59.0,57.0,30.13,NE,38,0.0,4.0,92,0.00,,,0.48,,2013-10-06 21:55:00,
2013-10-06 18:24:00,59.0,57.0,30.13,ENE,65,1.0,4.0,92,0.00,,,0.48,,2013-10-06 22:24:00,
2013-10-06 18:54:00,59.0,57.0,30.13,SE,128,0.0,5.0,92,0.01,,,0.49,,2013-10-06 22:54:00,
2013-10-06 19:12:00,59.0,57.0,30.13,SSE,150,0.0,7.0,92,0.01,,,0.49,,2013-10-06 23:12:00,
2013-10-06 19:22:00,59.0,57.0,30.13,NE,37,1.0,7.0,92,0.01,,,0.49,,2013-10-06 23:22:00,
2013-10-06 19:53:00,59.0,57.0,30.13,ESE,116,0.0,6.0,92,0.00,,,0.49,,2013-10-06 23:53:00,
2013-10-06 20:12:00,59.0,57.0,30.13,SSE,147,0.0,2.0,92,0.00,,,0.49,,2013-10-07 00:12:00,
2013-10-06 20:22:00,59.0,57.0,30.13,NE,48,0.0,5.0,92,0.00,,,0.49,,2013-10-07 00:22:00,
2013-10-06 20:42:00,59.0,57.0,30.13,East,96,0.0,5.0,92,0.00,,,0.49,,2013-10-07 00:42:00,
2013-10-06 20:52:00,59.0,57.0,30.13,ENE,78,0.0,7.0,92,0.00,,,0.49,,2013-10-07 00:52:00,
2013-10-06 21:11:00,59.0,57.0,30.12,ESE,123,0.0,4.0,92,0.01,,,0.50,,2013-10-07 01:11:00,
2013-10-06 21:22:00,59.0,57.0,30.12,ESE,114,1.0,4.0,92,0.01,,,0.50,,2013-10-07 01:22:00,
2013-10-06 21:42:00,59.0,57.0,30.11,ENE,74,0.0,7.0,92,0.01,,,0.50,,2013-10-07 01:42:00,
2013-10-06 21:53:00,59.0,57.0,30.11,NNW,344,0.0,5.0,92,0.01,,,0.50,,2013-10-07 01:53:00,
2013-10-06 22:12:00,59.0,57.0,30.11,WNW,284,1.0,4.0,92,0.00,,,0.50,,2013-10-07 02:12:00,
2013-10-06 22:22:00,60.0,58.0,30.11,SE,126,1.0,6.0,92,0.00,,,0.50,,2013-10-07 02:22:00,
2013-10-06 22:42:00,60.0,58.0,30.11,SE,141,0.0,7.0,93,0.00,,,0.50,,2013-10-07 02:42:00,
2013-10-06 22:53:00,60.0,58.0,30.11,NE,39,0.0,4.0,93,0.00,,,0.50,,2013-10-07 02:53:00,
2013-10-06 23:22:00,60.0,58.0,30.10,East,80,0.0,2.0,93,0.00,,,0.50,,2013-10-07 03:22:00,
2013-10-06 23:54:00,60.0,58.0,30.10,SE,138,0.0,3.0,93,0.00,,,0.47,,2013-10-07 03:54:00,